VHHH/HKG METAR and TAF weather

Enter ICAO airport designator
Station Type Date Time Source
VHHH METAR 2019/04/19 11:00 UTC NOAA

VHHH 191100Z 09014KT 9999 -SHRA FEW012 SCT028 23/21 Q1006 NOSIG


Station Type Date Time Source
VHHH Decoded METAR 2019/04/19 11:00 UTC NOAA

Hong Kong Inter-National Airport, Hong Kong (VHHH) 22-20N 114-11E 24M
Apr 19, 2019 - 07:00 AM EDT / 2019.04.19 1100 UTC
Wind: from the E (090 degrees) at 16 MPH (14 KT):0
Visibility: greater than 7 mile(s):0
Sky conditions: partly cloudy
Weather: light rain showers
Temperature: 73 F (23 C)
Dew Point: 69 F (21 C)
Relative Humidity: 88%
Pressure (altimeter): 29.71 in. Hg (1006 hPa)
ob: VHHH 191100Z 09014KT 9999 -SHRA FEW012 SCT028 23/21 Q1006 NOSIG
cycle: 11

Station Type Date Time Source
VHHH TAF 2019/04/19 06:25 UTC NOAA

TAF VHHH 190500Z 1906/2012 19010KT 8000 FEW010 SCT025 TX30/1906Z TX31/2006Z TN25/1922Z
TEMPO 1906/1912 VRB20G30KT 2000 TSRA SHRA FEW008 SCT015CB BKN040
TEMPO 1912/1918 3000 SHRA FEW010CB SCT020
TEMPO 2003/2009 3000 SHRA FEW010CB SCT020

Example: see airport list